sensor_id;sensor_type;location;lat;lon;timestamp;pressure;altitude;pressure_sealevel;temperature;humidity
47220;BME280;32961;51.936;4.788;2023-03-14T00:00:07;98826.53;;;9.68;94.03
47220;BME280;32961;51.936;4.788;2023-03-14T00:02:38;98834.66;;;9.68;94.00
47220;BME280;32961;51.936;4.788;2023-03-14T00:05:07;98828.31;;;9.61;93.75
47220;BME280;32961;51.936;4.788;2023-03-14T00:07:37;98822.06;;;9.60;93.29
47220;BME280;32961;51.936;4.788;2023-03-14T00:10:10;98813.91;;;9.60;93.21
47220;BME280;32961;51.936;4.788;2023-03-14T00:12:39;98816.44;;;9.62;92.77
47220;BME280;32961;51.936;4.788;2023-03-14T00:15:08;98815.22;;;9.64;92.89
47220;BME280;32961;51.936;4.788;2023-03-14T00:17:38;98815.41;;;9.63;92.65
47220;BME280;32961;51.936;4.788;2023-03-14T00:20:07;98818.13;;;9.63;92.99
47220;BME280;32961;51.936;4.788;2023-03-14T00:22:38;98804.75;;;9.61;92.87
47220;BME280;32961;51.936;4.788;2023-03-14T00:25:07;98813.53;;;9.63;92.57
47220;BME280;32961;51.936;4.788;2023-03-14T00:27:35;98810.66;;;9.65;93.05
47220;BME280;32961;51.936;4.788;2023-03-14T00:30:05;98818.94;;;9.63;92.91
47220;BME280;32961;51.936;4.788;2023-03-14T00:32:34;98809.31;;;9.61;93.81
47220;BME280;32961;51.936;4.788;2023-03-14T00:35:04;98815.59;;;9.61;94.07
47220;BME280;32961;51.936;4.788;2023-03-14T00:37:32;98827.47;;;9.60;94.05
47220;BME280;32961;51.936;4.788;2023-03-14T00:40:00;98820.72;;;9.56;94.25
47220;BME280;32961;51.936;4.788;2023-03-14T00:42:28;98828.22;;;9.54;95.02
47220;BME280;32961;51.936;4.788;2023-03-14T00:44:56;98833.72;;;9.46;95.96
47220;BME280;32961;51.936;4.788;2023-03-14T00:47:24;98850.34;;;9.43;96.52
47220;BME280;32961;51.936;4.788;2023-03-14T00:49:51;98847.84;;;9.41;97.47
47220;BME280;32961;51.936;4.788;2023-03-14T00:52:21;98852.63;;;9.39;97.44
47220;BME280;32961;51.936;4.788;2023-03-14T00:54:49;98848.41;;;9.37;98.43
47220;BME280;32961;51.936;4.788;2023-03-14T00:57:17;98854.19;;;9.34;98.85
47220;BME280;32961;51.936;4.788;2023-03-14T00:59:44;98848.97;;;9.32;99.10
47220;BME280;32961;51.936;4.788;2023-03-14T01:02:12;98851.03;;;9.30;99.68
47220;BME280;32961;51.936;4.788;2023-03-14T01:04:40;98844.28;;;9.26;99.91
47220;BME280;32961;51.936;4.788;2023-03-14T01:07:09;98839.91;;;9.25;100.00
47220;BME280;32961;51.936;4.788;2023-03-14T01:09:38;98836.31;;;9.24;100.00
47220;BME280;32961;51.936;4.788;2023-03-14T01:12:06;98835.69;;;9.22;100.00
47220;BME280;32961;51.936;4.788;2023-03-14T01:14:34;98841.94;;;9.23;100.00
47220;BME280;32961;51.936;4.788;2023-03-14T01:17:02;98840.63;;;9.19;100.00
47220;BME280;32961;51.936;4.788;2023-03-14T01:19:30;98835.56;;;9.15;100.00
47220;BME280;32961;51.936;4.788;2023-03-14T01:21:58;98843.34;;;9.19;100.00
47220;BME280;32961;51.936;4.788;2023-03-14T01:24:26;98842.00;;;9.14;100.00
47220;BME280;32961;51.936;4.788;2023-03-14T01:26:55;98834.56;;;9.17;100.00
47220;BME280;32961;51.936;4.788;2023-03-14T01:29:23;98829.81;;;9.19;100.00
47220;BME280;32961;51.936;4.788;2023-03-14T01:31:51;98829.13;;;9.17;100.00
47220;BME280;32961;51.936;4.788;2023-03-14T01:34:19;98817.47;;;9.16;99.96
47220;BME280;32961;51.936;4.788;2023-03-14T01:36:47;98814.75;;;9.16;99.90
47220;BME280;32961;51.936;4.788;2023-03-14T01:39:14;98815.78;;;9.15;99.71
47220;BME280;32961;51.936;4.788;2023-03-14T01:41:42;98810.16;;;9.17;99.94
47220;BME280;32961;51.936;4.788;2023-03-14T01:44:12;98808.47;;;9.15;99.74
47220;BME280;32961;51.936;4.788;2023-03-14T01:46:41;98806.78;;;9.14;99.90
47220;BME280;32961;51.936;4.788;2023-03-14T01:49:27;98803.06;;;9.15;99.49
47220;BME280;32961;51.936;4.788;2023-03-14T01:51:59;98796.34;;;9.11;99.88
47220;BME280;32961;51.936;4.788;2023-03-14T01:54:32;98805.28;;;9.12;100.00
47220;BME280;32961;51.936;4.788;2023-03-14T01:57:05;98811.19;;;9.15;100.00
47220;BME280;32961;51.936;4.788;2023-03-14T01:59:37;98796.97;;;9.13;100.00
47220;BME280;32961;51.936;4.788;2023-03-14T02:02:07;98803.59;;;9.11;100.00
47220;BME280;32961;51.936;4.788;2023-03-14T02:04:38;98790.91;;;9.11;100.00
47220;BME280;32961;51.936;4.788;2023-03-14T02:07:12;98791.13;;;9.10;100.00
47220;BME280;32961;51.936;4.788;2023-03-14T02:09:42;98786.25;;;9.05;100.00
47220;BME280;32961;51.936;4.788;2023-03-14T02:12:12;98779.13;;;9.04;100.00
47220;BME280;32961;51.936;4.788;2023-03-14T02:14:45;98781.84;;;9.04;100.00
47220;BME280;32961;51.936;4.788;2023-03-14T02:17:15;98786.41;;;9.04;100.00
47220;BME280;32961;51.936;4.788;2023-03-14T02:19:58;98770.53;;;9.01;100.00
47220;BME280;32961;51.936;4.788;2023-03-14T02:22:31;98768.84;;;8.99;100.00
47220;BME280;32961;51.936;4.788;2023-03-14T02:25:07;98773.06;;;9.02;100.00
47220;BME280;32961;51.936;4.788;2023-03-14T02:27:37;98762.41;;;9.01;100.00
47220;BME280;32961;51.936;4.788;2023-03-14T02:30:08;98783.69;;;9.04;100.00
47220;BME280;32961;51.936;4.788;2023-03-14T02:32:40;98791.00;;;9.03;100.00
47220;BME280;32961;51.936;4.788;2023-03-14T02:35:12;98781.94;;;8.96;100.00
47220;BME280;32961;51.936;4.788;2023-03-14T02:37:44;98781.72;;;8.97;100.00
47220;BME280;32961;51.936;4.788;2023-03-14T02:40:14;98769.03;;;8.98;100.00
47220;BME280;32961;51.936;4.788;2023-03-14T02:42:43;98765.13;;;9.01;100.00
47220;BME280;32961;51.936;4.788;2023-03-14T02:45:40;98763.97;;;8.95;100.00
47220;BME280;32961;51.936;4.788;2023-03-14T02:48:13;98756.81;;;9.02;100.00
47220;BME280;32961;51.936;4.788;2023-03-14T02:50:42;98765.78;;;9.03;100.00
47220;BME280;32961;51.936;4.788;2023-03-14T02:53:13;98760.38;;;9.03;100.00
47220;BME280;32961;51.936;4.788;2023-03-14T02:55:45;98767.63;;;9.02;100.00
47220;BME280;32961;51.936;4.788;2023-03-14T02:58:15;98762.03;;;9.04;100.00
47220;BME280;32961;51.936;4.788;2023-03-14T03:00:43;98758.50;;;9.03;100.00
47220;BME280;32961;51.936;4.788;2023-03-14T03:03:11;98757.47;;;9.04;100.00
47220;BME280;32961;51.936;4.788;2023-03-14T03:05:39;98754.38;;;9.07;100.00
47220;BME280;32961;51.936;4.788;2023-03-14T03:08:07;98752.31;;;9.09;100.00
47220;BME280;32961;51.936;4.788;2023-03-14T03:10:36;98743.53;;;9.07;100.00
47220;BME280;32961;51.936;4.788;2023-03-14T03:13:04;98750.63;;;9.08;100.00
47220;BME280;32961;51.936;4.788;2023-03-14T03:15:33;98755.44;;;9.06;100.00
47220;BME280;32961;51.936;4.788;2023-03-14T03:18:01;98741.41;;;9.03;100.00
47220;BME280;32961;51.936;4.788;2023-03-14T03:20:28;98726.81;;;9.04;100.00
47220;BME280;32961;51.936;4.788;2023-03-14T03:22:56;98736.63;;;9.05;100.00
47220;BME280;32961;51.936;4.788;2023-03-14T03:25:24;98732.22;;;9.04;100.00
47220;BME280;32961;51.936;4.788;2023-03-14T03:27:52;98723.66;;;9.00;100.00
47220;BME280;32961;51.936;4.788;2023-03-14T03:30:20;98733.09;;;9.04;100.00
47220;BME280;32961;51.936;4.788;2023-03-14T03:32:50;98741.03;;;9.06;100.00
47220;BME280;32961;51.936;4.788;2023-03-14T03:35:18;98736.47;;;9.06;100.00
47220;BME280;32961;51.936;4.788;2023-03-14T03:37:45;98750.00;;;9.06;100.00
47220;BME280;32961;51.936;4.788;2023-03-14T03:40:13;98750.84;;;9.07;100.00
47220;BME280;32961;51.936;4.788;2023-03-14T03:42:41;98744.41;;;9.08;99.79
47220;BME280;32961;51.936;4.788;2023-03-14T03:45:10;98743.53;;;9.07;99.87
47220;BME280;32961;51.936;4.788;2023-03-14T03:47:37;98749.41;;;9.11;99.99
47220;BME280;32961;51.936;4.788;2023-03-14T03:50:07;98739.63;;;9.10;100.00
47220;BME280;32961;51.936;4.788;2023-03-14T03:52:35;98733.75;;;9.06;100.00
47220;BME280;32961;51.936;4.788;2023-03-14T03:55:04;98739.63;;;9.10;99.82
47220;BME280;32961;51.936;4.788;2023-03-14T03:57:32;98735.06;;;9.10;100.00
47220;BME280;32961;51.936;4.788;2023-03-14T03:59:59;98734.22;;;9.10;100.00
47220;BME280;32961;51.936;4.788;2023-03-14T04:02:27;98741.28;;;9.11;100.00
47220;BME280;32961;51.936;4.788;2023-03-14T04:04:55;98731.13;;;9.13;100.00
47220;BME280;32961;51.936;4.788;2023-03-14T04:07:25;98732.34;;;9.10;100.00
47220;BME280;32961;51.936;4.788;2023-03-14T04:09:52;98735.88;;;9.11;100.00
47220;BME280;32961;51.936;4.788;2023-03-14T04:12:20;98738.41;;;9.12;100.00
47220;BME280;32961;51.936;4.788;2023-03-14T04:14:48;98733.00;;;9.12;100.00
47220;BME280;32961;51.936;4.788;2023-03-14T04:17:16;98738.41;;;9.12;100.00
47220;BME280;32961;51.936;4.788;2023-03-14T04:19:44;98737.22;;;9.15;100.00
47220;BME280;32961;51.936;4.788;2023-03-14T04:22:13;98746.56;;;9.12;100.00
47220;BME280;32961;51.936;4.788;2023-03-14T04:24:42;98735.25;;;9.09;100.00
47220;BME280;32961;51.936;4.788;2023-03-14T04:27:09;98732.53;;;9.09;100.00
47220;BME280;32961;51.936;4.788;2023-03-14T04:29:37;98737.56;;;9.12;100.00
47220;BME280;32961;51.936;4.788;2023-03-14T04:32:05;98739.06;;;9.14;100.00
47220;BME280;32961;51.936;4.788;2023-03-14T04:34:33;98736.19;;;9.16;100.00
47220;BME280;32961;51.936;4.788;2023-03-14T04:37:01;98727.19;;;9.15;100.00
47220;BME280;32961;51.936;4.788;2023-03-14T04:39:28;98728.88;;;9.17;100.00
47220;BME280;32961;51.936;4.788;2023-03-14T04:41:58;98733.09;;;9.19;100.00
47220;BME280;32961;51.936;4.788;2023-03-14T04:44:25;98728.22;;;9.14;100.00
47220;BME280;32961;51.936;4.788;2023-03-14T04:46:53;98728.22;;;9.14;100.00
47220;BME280;32961;51.936;4.788;2023-03-14T04:49:21;98724.88;;;9.12;100.00
47220;BME280;32961;51.936;4.788;2023-03-14T04:51:49;98717.31;;;9.08;100.00
47220;BME280;32961;51.936;4.788;2023-03-14T04:54:18;98717.97;;;9.10;100.00
47220;BME280;32961;51.936;4.788;2023-03-14T04:56:45;98706.66;;;9.06;100.00
47220;BME280;32961;51.936;4.788;2023-03-14T04:59:14;98711.41;;;9.04;100.00
47220;BME280;32961;51.936;4.788;2023-03-14T05:01:42;98704.31;;;9.03;100.00
47220;BME280;32961;51.936;4.788;2023-03-14T05:04:10;98691.78;;;9.02;100.00
47220;BME280;32961;51.936;4.788;2023-03-14T05:06:38;98705.88;;;8.97;100.00
47220;BME280;32961;51.936;4.788;2023-03-14T05:09:06;98704.03;;;8.98;100.00
47220;BME280;32961;51.936;4.788;2023-03-14T05:11:34;98693.56;;;8.95;100.00
47220;BME280;32961;51.936;4.788;2023-03-14T05:14:02;98706.09;;;8.96;100.00
47220;BME280;32961;51.936;4.788;2023-03-14T05:16:31;98702.16;;;8.98;100.00
47220;BME280;32961;51.936;4.788;2023-03-14T05:18:59;98697.28;;;8.94;100.00
47220;BME280;32961;51.936;4.788;2023-03-14T05:21:28;98690.84;;;8.95;100.00
47220;BME280;32961;51.936;4.788;2023-03-14T05:24:01;98696.19;;;8.88;100.00
47220;BME280;32961;51.936;4.788;2023-03-14T05:26:29;98693.47;;;8.88;100.00
47220;BME280;32961;51.936;4.788;2023-03-14T05:28:57;98705.34;;;8.87;100.00
47220;BME280;32961;51.936;4.788;2023-03-14T05:31:25;98699.25;;;8.85;100.00
47220;BME280;32961;51.936;4.788;2023-03-14T05:33:54;98691.13;;;8.85;100.00
47220;BME280;32961;51.936;4.788;2023-03-14T05:36:22;98688.63;;;8.83;100.00
47220;BME280;32961;51.936;4.788;2023-03-14T05:38:50;98694.41;;;8.80;100.00
47220;BME280;32961;51.936;4.788;2023-03-14T05:41:18;98681.91;;;8.79;100.00
47220;BME280;32961;51.936;4.788;2023-03-14T05:43:45;98688.16;;;8.80;100.00
47220;BME280;32961;51.936;4.788;2023-03-14T05:46:13;98698.97;;;8.80;100.00
47220;BME280;32961;51.936;4.788;2023-03-14T05:48:41;98698.31;;;8.78;100.00
47220;BME280;32961;51.936;4.788;2023-03-14T05:51:10;98710.00;;;8.78;100.00
47220;BME280;32961;51.936;4.788;2023-03-14T05:53:38;98718.47;;;8.75;100.00
47220;BME280;32961;51.936;4.788;2023-03-14T05:56:07;98723.75;;;8.77;100.00
47220;BME280;32961;51.936;4.788;2023-03-14T05:58:35;98784.31;;;8.76;100.00
47220;BME280;32961;51.936;4.788;2023-03-14T06:01:03;98776.91;;;8.55;100.00
47220;BME280;32961;51.936;4.788;2023-03-14T06:03:32;98784.34;;;8.29;100.00
47220;BME280;32961;51.936;4.788;2023-03-14T06:06:00;98797.66;;;8.08;100.00
47220;BME280;32961;51.936;4.788;2023-03-14T06:08:29;98810.41;;;7.91;100.00
47220;BME280;32961;51.936;4.788;2023-03-14T06:10:57;98806.31;;;7.71;100.00
47220;BME280;32961;51.936;4.788;2023-03-14T06:13:25;98818.03;;;7.55;100.00
47220;BME280;32961;51.936;4.788;2023-03-14T06:15:53;98813.16;;;7.51;100.00
47220;BME280;32961;51.936;4.788;2023-03-14T06:18:21;98826.19;;;7.39;100.00
47220;BME280;32961;51.936;4.788;2023-03-14T06:20:49;98834.28;;;7.47;100.00
47220;BME280;32961;51.936;4.788;2023-03-14T06:23:16;98833.97;;;7.42;100.00
47220;BME280;32961;51.936;4.788;2023-03-14T06:25:45;98844.06;;;7.48;100.00
47220;BME280;32961;51.936;4.788;2023-03-14T06:28:13;98848.47;;;7.41;100.00
47220;BME280;32961;51.936;4.788;2023-03-14T06:30:41;98859.28;;;7.41;100.00
47220;BME280;32961;51.936;4.788;2023-03-14T06:33:09;98867.91;;;7.28;100.00
47220;BME280;32961;51.936;4.788;2023-03-14T06:35:37;98866.56;;;7.24;100.00
47220;BME280;32961;51.936;4.788;2023-03-14T06:38:05;98873.34;;;7.20;100.00
47220;BME280;32961;51.936;4.788;2023-03-14T06:40:33;98878.22;;;7.25;100.00
47220;BME280;32961;51.936;4.788;2023-03-14T06:43:02;98878.38;;;7.15;100.00
47220;BME280;32961;51.936;4.788;2023-03-14T06:45:30;98886.16;;;7.18;100.00
47220;BME280;32961;51.936;4.788;2023-03-14T06:47:57;98901.03;;;7.14;100.00
47220;BME280;32961;51.936;4.788;2023-03-14T06:50:25;98905.44;;;7.06;100.00
47220;BME280;32961;51.936;4.788;2023-03-14T06:52:53;98918.06;;;7.14;100.00
47220;BME280;32961;51.936;4.788;2023-03-14T06:55:21;98932.91;;;7.18;100.00
47220;BME280;32961;51.936;4.788;2023-03-14T06:57:51;98936.66;;;7.01;100.00
47220;BME280;32961;51.936;4.788;2023-03-14T07:00:48;98954.84;;;6.82;100.00
47220;BME280;32961;51.936;4.788;2023-03-14T07:03:31;98965.50;;;7.00;100.00
47220;BME280;32961;51.936;4.788;2023-03-14T07:05:59;98971.72;;;6.93;100.00
47220;BME280;32961;51.936;4.788;2023-03-14T07:08:27;98982.22;;;6.96;100.00
47220;BME280;32961;51.936;4.788;2023-03-14T07:10:56;98996.38;;;6.89;100.00
47220;BME280;32961;51.936;4.788;2023-03-14T07:13:24;98999.75;;;6.83;100.00
47220;BME280;32961;51.936;4.788;2023-03-14T07:15:53;99006.50;;;6.87;100.00
47220;BME280;32961;51.936;4.788;2023-03-14T07:18:21;99013.75;;;6.87;100.00
47220;BME280;32961;51.936;4.788;2023-03-14T07:20:49;99023.56;;;6.88;100.00
47220;BME280;32961;51.936;4.788;2023-03-14T07:23:17;99039.22;;;6.84;100.00
47220;BME280;32961;51.936;4.788;2023-03-14T07:25:45;99045.16;;;6.88;100.00
47220;BME280;32961;51.936;4.788;2023-03-14T07:28:12;99045.66;;;6.92;100.00
47220;BME280;32961;51.936;4.788;2023-03-14T07:30:40;99053.59;;;6.93;100.00
47220;BME280;32961;51.936;4.788;2023-03-14T07:33:09;99069.28;;;6.89;100.00
47220;BME280;32961;51.936;4.788;2023-03-14T07:35:37;99068.78;;;6.94;100.00
47220;BME280;32961;51.936;4.788;2023-03-14T07:38:05;99075.50;;;6.90;100.00
47220;BME280;32961;51.936;4.788;2023-03-14T07:40:33;99082.44;;;6.84;100.00
47220;BME280;32961;51.936;4.788;2023-03-14T07:43:03;99099.47;;;6.85;100.00
47220;BME280;32961;51.936;4.788;2023-03-14T07:45:31;99102.19;;;6.93;100.00
47220;BME280;32961;51.936;4.788;2023-03-14T07:48:08;99130.91;;;6.94;100.00
47220;BME280;32961;51.936;4.788;2023-03-14T07:50:37;99129.00;;;6.86;100.00
47220;BME280;32961;51.936;4.788;2023-03-14T07:53:05;99137.13;;;6.95;100.00
47220;BME280;32961;51.936;4.788;2023-03-14T07:55:33;99140.16;;;6.92;100.00
47220;BME280;32961;51.936;4.788;2023-03-14T07:58:01;99156.03;;;6.95;100.00
47220;BME280;32961;51.936;4.788;2023-03-14T08:00:29;99164.66;;;6.98;100.00
47220;BME280;32961;51.936;4.788;2023-03-14T08:02:57;99174.63;;;6.98;100.00
47220;BME280;32961;51.936;4.788;2023-03-14T08:05:24;99192.78;;;6.87;100.00
47220;BME280;32961;51.936;4.788;2023-03-14T08:07:54;99193.78;;;6.86;100.00
47220;BME280;32961;51.936;4.788;2023-03-14T08:10:22;99215.59;;;6.67;100.00
47220;BME280;32961;51.936;4.788;2023-03-14T08:12:50;99228.09;;;6.41;100.00
47220;BME280;32961;51.936;4.788;2023-03-14T08:15:18;99237.91;;;6.42;100.00
47220;BME280;32961;51.936;4.788;2023-03-14T08:17:45;99243.06;;;6.36;100.00
47220;BME280;32961;51.936;4.788;2023-03-14T08:20:17;99247.47;;;6.19;100.00
47220;BME280;32961;51.936;4.788;2023-03-14T08:22:45;99264.09;;;6.14;100.00
47220;BME280;32961;51.936;4.788;2023-03-14T08:25:15;99279.97;;;5.99;100.00
47220;BME280;32961;51.936;4.788;2023-03-14T08:27:43;99295.50;;;5.87;100.00
47220;BME280;32961;51.936;4.788;2023-03-14T08:30:14;99309.00;;;5.59;100.00
47220;BME280;32961;51.936;4.788;2023-03-14T08:32:42;99323.47;;;5.58;100.00
47220;BME280;32961;51.936;4.788;2023-03-14T08:35:10;99330.41;;;5.61;100.00
47220;BME280;32961;51.936;4.788;2023-03-14T08:37:38;99343.09;;;5.51;100.00
47220;BME280;32961;51.936;4.788;2023-03-14T08:40:08;99369.47;;;5.47;100.00
47220;BME280;32961;51.936;4.788;2023-03-14T08:42:39;99375.31;;;5.42;100.00
47220;BME280;32961;51.936;4.788;2023-03-14T08:45:10;99392.31;;;5.43;100.00
47220;BME280;32961;51.936;4.788;2023-03-14T08:47:38;99402.28;;;5.33;100.00
47220;BME280;32961;51.936;4.788;2023-03-14T08:50:07;99416.31;;;5.26;100.00
47220;BME280;32961;51.936;4.788;2023-03-14T08:52:35;99431.00;;;5.42;100.00
47220;BME280;32961;51.936;4.788;2023-03-14T08:55:05;99428.47;;;5.40;100.00
47220;BME280;32961;51.936;4.788;2023-03-14T08:57:33;99442.09;;;5.39;100.00
47220;BME280;32961;51.936;4.788;2023-03-14T09:00:02;99443.22;;;5.46;100.00
47220;BME280;32961;51.936;4.788;2023-03-14T09:02:34;99462.75;;;5.48;100.00
47220;BME280;32961;51.936;4.788;2023-03-14T09:05:02;99470.72;;;5.50;100.00
47220;BME280;32961;51.936;4.788;2023-03-14T09:07:30;99481.91;;;5.45;100.00
47220;BME280;32961;51.936;4.788;2023-03-14T09:09:58;99482.63;;;5.47;100.00
47220;BME280;32961;51.936;4.788;2023-03-14T09:12:26;99498.22;;;5.53;100.00
47220;BME280;32961;51.936;4.788;2023-03-14T09:14:54;99504.81;;;5.69;100.00
47220;BME280;32961;51.936;4.788;2023-03-14T09:17:23;99518.25;;;5.88;100.00
47220;BME280;32961;51.936;4.788;2023-03-14T09:19:51;99526.78;;;5.93;100.00
47220;BME280;32961;51.936;4.788;2023-03-14T09:22:19;99531.84;;;5.97;100.00
47220;BME280;32961;51.936;4.788;2023-03-14T09:24:47;99547.44;;;6.13;100.00
47220;BME280;32961;51.936;4.788;2023-03-14T09:27:15;99557.91;;;6.25;99.82
47220;BME280;32961;51.936;4.788;2023-03-14T09:29:43;99559.91;;;6.23;99.65
47220;BME280;32961;51.936;4.788;2023-03-14T09:32:11;99574.69;;;6.19;97.38
47220;BME280;32961;51.936;4.788;2023-03-14T09:34:40;99585.22;;;6.03;96.29
47220;BME280;32961;51.936;4.788;2023-03-14T09:37:08;99590.91;;;5.90;95.22
47220;BME280;32961;51.936;4.788;2023-03-14T09:39:36;99606.34;;;5.98;95.24
47220;BME280;32961;51.936;4.788;2023-03-14T09:42:06;99601.13;;;5.96;95.49
47220;BME280;32961;51.936;4.788;2023-03-14T09:44:42;99619.69;;;5.89;93.32
47220;BME280;32961;51.936;4.788;2023-03-14T09:47:13;99629.94;;;5.76;93.47
47220;BME280;32961;51.936;4.788;2023-03-14T09:49:43;99648.94;;;5.74;92.70
47220;BME280;32961;51.936;4.788;2023-03-14T09:52:13;99658.75;;;5.66;92.84
47220;BME280;32961;51.936;4.788;2023-03-14T09:54:44;99670.94;;;5.79;93.15
47220;BME280;32961;51.936;4.788;2023-03-14T09:57:14;99691.25;;;5.74;94.90
47220;BME280;32961;51.936;4.788;2023-03-14T09:59:45;99696.63;;;5.54;97.47
47220;BME280;32961;51.936;4.788;2023-03-14T10:02:19;99710.34;;;5.41;98.86
47220;BME280;32961;51.936;4.788;2023-03-14T10:04:51;99727.81;;;5.47;99.32
47220;BME280;32961;51.936;4.788;2023-03-14T10:07:21;99723.81;;;5.41;99.57
47220;BME280;32961;51.936;4.788;2023-03-14T10:09:51;99741.84;;;5.10;99.65
47220;BME280;32961;51.936;4.788;2023-03-14T10:12:19;99751.03;;;4.97;100.00
47220;BME280;32961;51.936;4.788;2023-03-14T10:15:02;99744.53;;;5.10;100.00
47220;BME280;32961;51.936;4.788;2023-03-14T10:17:38;99757.75;;;5.13;99.24
47220;BME280;32961;51.936;4.788;2023-03-14T10:20:27;99769.25;;;5.15;99.45
47220;BME280;32961;51.936;4.788;2023-03-14T10:23:00;99777.22;;;5.26;100.00
47220;BME280;32961;51.936;4.788;2023-03-14T10:25:32;99795.13;;;5.37;100.00
47220;BME280;32961;51.936;4.788;2023-03-14T10:28:04;99809.47;;;5.47;99.26
47220;BME280;32961;51.936;4.788;2023-03-14T10:30:38;99823.38;;;5.53;98.81
47220;BME280;32961;51.936;4.788;2023-03-14T10:33:20;99830.59;;;5.42;97.83
47220;BME280;32961;51.936;4.788;2023-03-14T10:35:54;99846.53;;;5.24;95.45
47220;BME280;32961;51.936;4.788;2023-03-14T10:38:24;99833.94;;;5.25;95.68
47220;BME280;32961;51.936;4.788;2023-03-14T10:40:54;99855.97;;;5.40;96.92
47220;BME280;32961;51.936;4.788;2023-03-14T10:43:24;99861.00;;;5.54;97.28
47220;BME280;32961;51.936;4.788;2023-03-14T10:45:55;99881.03;;;5.40;96.71
47220;BME280;32961;51.936;4.788;2023-03-14T10:48:30;99885.25;;;5.33;97.72
47220;BME280;32961;51.936;4.788;2023-03-14T10:51:05;99898.88;;;5.32;95.91
47220;BME280;32961;51.936;4.788;2023-03-14T10:53:38;99904.69;;;5.37;95.47
47220;BME280;32961;51.936;4.788;2023-03-14T10:56:13;99900.97;;;5.28;91.05
47220;BME280;32961;51.936;4.788;2023-03-14T10:58:43;99918.31;;;5.35;91.00
47220;BME280;32961;51.936;4.788;2023-03-14T11:01:29;99921.38;;;5.52;89.62
47220;BME280;32961;51.936;4.788;2023-03-14T11:04:06;99928.94;;;5.68;88.63
47220;BME280;32961;51.936;4.788;2023-03-14T11:06:43;99928.00;;;5.78;88.53
47220;BME280;32961;51.936;4.788;2023-03-14T11:09:17;99952.69;;;6.05;89.12
47220;BME280;32961;51.936;4.788;2023-03-14T11:11:48;99955.94;;;5.99;84.84
47220;BME280;32961;51.936;4.788;2023-03-14T11:14:23;99977.03;;;5.93;82.17
47220;BME280;32961;51.936;4.788;2023-03-14T11:16:56;99970.69;;;6.04;83.41
47220;BME280;32961;51.936;4.788;2023-03-14T11:19:46;99993.28;;;6.03;80.39
47220;BME280;32961;51.936;4.788;2023-03-14T11:22:28;100006.19;;;6.40;82.34
47220;BME280;32961;51.936;4.788;2023-03-14T11:25:21;100005.09;;;6.63;79.23
47220;BME280;32961;51.936;4.788;2023-03-14T11:27:56;100019.72;;;6.60;75.79
47220;BME280;32961;51.936;4.788;2023-03-14T11:30:34;100027.38;;;6.55;73.32
47220;BME280;32961;51.936;4.788;2023-03-14T11:33:08;100027.84;;;6.70;76.56
47220;BME280;32961;51.936;4.788;2023-03-14T11:35:45;100047.59;;;6.80;72.74
47220;BME280;32961;51.936;4.788;2023-03-14T11:38:29;100033.44;;;6.98;72.33
47220;BME280;32961;51.936;4.788;2023-03-14T11:40:58;100051.88;;;7.02;68.95
47220;BME280;32961;51.936;4.788;2023-03-14T11:43:29;100054.88;;;7.09;68.00
47220;BME280;32961;51.936;4.788;2023-03-14T11:46:04;100062.84;;;7.20;66.83
47220;BME280;32961;51.936;4.788;2023-03-14T11:48:44;100069.81;;;7.43;68.16
47220;BME280;32961;51.936;4.788;2023-03-14T11:51:21;100076.09;;;7.53;64.67
47220;BME280;32961;51.936;4.788;2023-03-14T11:54:01;100079.47;;;7.55;62.93
47220;BME280;32961;51.936;4.788;2023-03-14T11:56:34;100080.63;;;7.43;60.43
47220;BME280;32961;51.936;4.788;2023-03-14T11:59:07;100091.75;;;7.39;54.67
47220;BME280;32961;51.936;4.788;2023-03-14T12:01:50;100102.66;;;7.38;54.89
47220;BME280;32961;51.936;4.788;2023-03-14T12:04:26;100099.69;;;7.61;55.29
47220;BME280;32961;51.936;4.788;2023-03-14T12:07:02;100105.50;;;7.66;55.43
47220;BME280;32961;51.936;4.788;2023-03-14T12:09:32;100106.06;;;7.79;56.71
47220;BME280;32961;51.936;4.788;2023-03-14T12:12:04;100125.28;;;7.86;55.76
47220;BME280;32961;51.936;4.788;2023-03-14T12:14:34;100122.72;;;7.84;58.05
47220;BME280;32961;51.936;4.788;2023-03-14T12:17:17;100123.09;;;7.99;58.05
47220;BME280;32961;51.936;4.788;2023-03-14T12:19:46;100127.81;;;7.97;58.31
47220;BME280;32961;51.936;4.788;2023-03-14T12:24:52;100137.75;;;8.16;57.97
47220;BME280;32961;51.936;4.788;2023-03-14T12:27:42;100162.00;;;8.08;54.63
47220;BME280;32961;51.936;4.788;2023-03-14T12:30:18;100151.25;;;8.16;53.22
47220;BME280;32961;51.936;4.788;2023-03-14T12:36:18;100160.56;;;8.04;54.78
47220;BME280;32961;51.936;4.788;2023-03-14T12:39:05;100168.53;;;8.15;52.88
47220;BME280;32961;51.936;4.788;2023-03-14T12:41:42;100183.47;;;8.10;51.77
47220;BME280;32961;51.936;4.788;2023-03-14T12:44:41;100185.19;;;8.11;51.86
47220;BME280;32961;51.936;4.788;2023-03-14T12:50:31;100193.03;;;8.04;50.73
47220;BME280;32961;51.936;4.788;2023-03-14T12:53:19;100191.19;;;8.14;50.66
47220;BME280;32961;51.936;4.788;2023-03-14T12:55:53;100203.25;;;8.10;51.69
47220;BME280;32961;51.936;4.788;2023-03-14T12:58:31;100219.66;;;7.99;52.08
47220;BME280;32961;51.936;4.788;2023-03-14T13:01:04;100228.63;;;7.99;52.13
47220;BME280;32961;51.936;4.788;2023-03-14T13:03:40;100239.72;;;8.06;52.45
47220;BME280;32961;51.936;4.788;2023-03-14T13:06:11;100236.47;;;8.02;52.23
47220;BME280;32961;51.936;4.788;2023-03-14T13:08:40;100239.72;;;8.06;50.59
47220;BME280;32961;51.936;4.788;2023-03-14T13:11:10;100249.25;;;8.10;50.75
47220;BME280;32961;51.936;4.788;2023-03-14T13:13:47;100267.22;;;8.11;51.98
47220;BME280;32961;51.936;4.788;2023-03-14T13:16:17;100264.50;;;8.11;51.24
47220;BME280;32961;51.936;4.788;2023-03-14T13:18:47;100278.91;;;8.31;51.56
47220;BME280;32961;51.936;4.788;2023-03-14T13:21:17;100278.03;;;8.31;47.85
47220;BME280;32961;51.936;4.788;2023-03-14T13:23:57;100299.13;;;8.17;47.58
47220;BME280;32961;51.936;4.788;2023-03-14T13:26:32;100305.97;;;8.02;45.87
47220;BME280;32961;51.936;4.788;2023-03-14T13:29:15;100305.50;;;7.97;45.26